YSNW/NOA METAR and TAF weather

Enter ICAO airport designator
Station Type Date Time Source
YSNW METAR 2021/07/26 16:00 UTC NOAA

YSNW 261600Z AUTO 33005KT 9999 // SCT043 OVC063 13/07 Q1016


Station Type Date Time Source
YSNW Decoded METAR 2021/07/26 16:00 UTC NOAA

Nowra Ran Air Station, Australia (YSNW) 34-57S 150-32E 110M
Jul 26, 2021 - 12:00 PM EDT / 2021.07.26 1600 UTC
Wind: from the NNW (330 degrees) at 6 MPH (5 KT):0
Visibility: greater than 7 mile(s):0
Sky conditions: overcast
Temperature: 55 F (13 C)
Dew Point: 44 F (7 C)
Relative Humidity: 66%
Pressure (altimeter): 30.00 in. Hg (1016 hPa)
ob: YSNW 261600Z AUTO 33005KT 9999 // SCT043 OVC063 13/07 Q1016
cycle: 16

Station Type Date Time Source
YSNW TAF UTC NOAA

Error!

Example: see airport list